Time;durP1;ratioP1;P1;durP2;ratioP2;P2;SDS_P1;SDS_P2;PMS_P1;PMS_P2;Temp;Humidity;BMP_temperature;BMP_pressure;BME280_temperature;BME280_humidity;BME280_pressure;Samples;Min_cycle;Max_cycle;Signal;HPM_P1;HPM_P2
2021/07/29 00:01:43;;;;;;;;;2.00;2.00;;;;;;;;5141576;27;47459;-74
2021/07/29 00:04:09;;;;;;;;;3.00;3.00;;;;;;;;5141716;27;45339;-74
2021/07/29 00:06:34;;;;;;;;;1.67;1.33;;;;;;;;5141753;27;45287;-74
2021/07/29 00:08:59;;;;;;;;;3.00;3.00;;;;;;;;5143102;27;45311;-74
2021/07/29 00:11:24;;;;;;;;;2.67;2.67;;;;;;;;5142704;27;45258;-75
2021/07/29 00:13:57;;;;;;;;;2.00;2.00;;;;;;;;5142848;27;45354;-74
2021/07/29 00:16:23;;;;;;;;;4.00;3.00;;;;;;;;5142560;27;45326;-74
2021/07/29 00:19:03;;;;;;;;;3.67;3.67;;;;;;;;5141330;27;46352;-75
2021/07/29 00:21:28;;;;;;;;;3.33;3.00;;;;;;;;5142462;27;45276;-75
2021/07/29 00:23:54;;;;;;;;;4.00;4.00;;;;;;;;5142800;27;45308;-74
2021/07/29 00:26:19;;;;;;;;;3.00;3.00;;;;;;;;5141546;27;45163;-74
2021/07/29 00:28:44;;;;;;;;;4.33;3.00;;;;;;;;5142426;27;45265;-74
2021/07/29 00:31:09;;;;;;;;;6.00;4.00;;;;;;;;5126200;27;46039;-74
2021/07/29 00:33:35;;;;;;;;;3.00;3.00;;;;;;;;5121827;27;45299;-74
2021/07/29 00:36:00;;;;;;;;;5.00;5.00;;;;;;;;5121934;27;45272;-74
2021/07/29 00:38:25;;;;;;;;;3.67;3.67;;;;;;;;5120326;27;46212;-74
2021/07/29 00:40:50;;;;;;;;;2.33;2.33;;;;;;;;5121873;27;45261;-74
2021/07/29 00:43:16;;;;;;;;;3.33;3.00;;;;;;;;5121539;27;45262;-74
2021/07/29 00:45:43;;;;;;;;;4.67;4.67;;;;;;;;5120431;27;45325;-74
2021/07/29 00:48:10;;;;;;;;;3.00;3.00;;;;;;;;5121544;27;45332;-75
2021/07/29 00:50:35;;;;;;;;;3.67;2.00;;;;;;;;5121081;27;47172;-75
2021/07/29 00:53:01;;;;;;;;;4.00;4.00;;;;;;;;5121361;27;45270;-75
2021/07/29 00:55:26;;;;;;;;;4.67;4.67;;;;;;;;5103122;27;45176;-74
2021/07/29 00:57:53;;;;;;;;;4.67;4.00;;;;;;;;5121279;27;45575;-75
2021/07/29 01:00:19;;;;;;;;;6.00;5.33;;;;;;;;5121409;27;46330;-74
2021/07/29 01:02:44;;;;;;;;;4.33;4.33;;;;;;;;5121271;27;45267;-74
2021/07/29 01:05:10;;;;;;;;;4.33;4.33;;;;;;;;5121605;27;45585;-74
2021/07/29 01:07:35;;;;;;;;;4.00;4.00;;;;;;;;5121151;27;45534;-74
2021/07/29 01:10:00;;;;;;;;;4.00;3.67;;;;;;;;5121199;27;45370;-74
2021/07/29 01:12:25;;;;;;;;;6.00;5.00;;;;;;;;5121214;27;45328;-74
2021/07/29 01:14:50;;;;;;;;;5.67;4.00;;;;;;;;5121024;27;45505;-74
2021/07/29 01:17:16;;;;;;;;;4.00;4.00;;;;;;;;5120758;27;45320;-74
2021/07/29 01:19:41;;;;;;;;;4.00;4.00;;;;;;;;5121154;27;45360;-74
2021/07/29 01:22:06;;;;;;;;;4.67;4.67;;;;;;;;5120967;27;45273;-74
2021/07/29 01:24:31;;;;;;;;;4.00;4.00;;;;;;;;5121044;27;45342;-74
2021/07/29 01:26:56;;;;;;;;;3.33;3.33;;;;;;;;5121011;27;45339;-74
2021/07/29 01:29:22;;;;;;;;;3.67;3.67;;;;;;;;5121434;27;45316;-74
2021/07/29 01:31:47;;;;;;;;;4.00;3.00;;;;;;;;5141718;27;45252;-74
2021/07/29 01:34:13;;;;;;;;;3.00;3.00;;;;;;;;5141748;27;45301;-74
2021/07/29 01:36:38;;;;;;;;;6.00;4.00;;;;;;;;5141448;27;45292;-74
2021/07/29 01:39:03;;;;;;;;;3.00;3.00;;;;;;;;5141599;27;45306;-74
2021/07/29 01:41:29;;;;;;;;;2.67;2.67;;;;;;;;5141583;27;45312;-74
2021/07/29 01:43:54;;;;;;;;;5.67;4.67;;;;;;;;5140252;27;45306;-74
2021/07/29 01:46:19;;;;;;;;;3.00;3.00;;;;;;;;5141672;27;45489;-74
2021/07/29 01:48:45;;;;;;;;;3.67;3.67;;;;;;;;5141571;27;45637;-74
2021/07/29 01:51:10;;;;;;;;;2.00;2.00;;;;;;;;5141240;27;45251;-74
2021/07/29 01:53:35;;;;;;;;;4.33;4.00;;;;;;;;5141647;27;45281;-74
2021/07/29 01:56:00;;;;;;;;;4.00;4.00;;;;;;;;5141303;27;45626;-74
2021/07/29 01:58:25;;;;;;;;;5.00;5.00;;;;;;;;5139667;27;47113;-74
2021/07/29 02:00:53;;;;;;;;;3.33;3.33;;;;;;;;5139972;27;45266;-74
2021/07/29 02:03:18;;;;;;;;;4.00;4.00;;;;;;;;5141448;27;45304;-75
2021/07/29 02:05:43;;;;;;;;;5.00;4.00;;;;;;;;5139876;27;45451;-74
2021/07/29 02:08:08;;;;;;;;;5.67;4.00;;;;;;;;5141243;27;45140;-75
2021/07/29 02:10:34;;;;;;;;;3.00;3.00;;;;;;;;5141364;27;45217;-74
2021/07/29 02:12:59;;;;;;;;;3.67;3.67;;;;;;;;5141061;27;45147;-74
2021/07/29 02:15:25;;;;;;;;;5.00;5.00;;;;;;;;5141050;27;45323;-74
2021/07/29 02:17:54;;;;;;;;;3.00;3.00;;;;;;;;5141065;27;45304;-74
2021/07/29 02:20:19;;;;;;;;;3.00;2.00;;;;;;;;5139800;27;45329;-73
2021/07/29 02:22:44;;;;;;;;;4.67;3.00;;;;;;;;5141043;27;45339;-74
2021/07/29 02:25:12;;;;;;;;;4.00;4.00;;;;;;;;5141048;27;45292;-74
2021/07/29 02:27:37;;;;;;;;;4.00;4.00;;;;;;;;5140939;27;46557;-74
2021/07/29 02:30:02;;;;;;;;;5.33;5.00;;;;;;;;5136066;27;45225;-74
2021/07/29 02:32:27;;;;;;;;;3.33;3.33;;;;;;;;5123938;27;45728;-74
2021/07/29 02:34:53;;;;;;;;;4.00;2.00;;;;;;;;5123853;27;45197;-75
2021/07/29 02:37:19;;;;;;;;;3.67;3.67;;;;;;;;5123318;27;46357;-74
2021/07/29 02:39:44;;;;;;;;;5.00;4.33;;;;;;;;5123733;27;45599;-74
2021/07/29 02:42:09;;;;;;;;;6.33;4.33;;;;;;;;5123743;27;45243;-74
2021/07/29 02:44:35;;;;;;;;;4.67;4.67;;;;;;;;5123395;27;45411;-74
2021/07/29 02:47:00;;;;;;;;;5.67;3.67;;;;;;;;5123547;27;45445;-74
2021/07/29 02:49:25;;;;;;;;;6.00;5.00;;;;;;;;5123421;27;45327;-74
2021/07/29 02:51:51;;;;;;;;;3.00;3.00;;;;;;;;5123439;27;45258;-74
2021/07/29 02:54:16;;;;;;;;;3.67;3.67;;;;;;;;5123392;27;45469;-75
2021/07/29 02:56:41;;;;;;;;;4.33;4.33;;;;;;;;5123535;27;46284;-74
2021/07/29 02:59:06;;;;;;;;;6.00;5.33;;;;;;;;5123180;27;45339;-74
2021/07/29 03:01:32;;;;;;;;;7.00;5.67;;;;;;;;5123384;27;45286;-74
2021/07/29 03:03:57;;;;;;;;;4.00;4.00;;;;;;;;5123303;27;45325;-74
2021/07/29 03:06:22;;;;;;;;;7.67;6.67;;;;;;;;5121823;27;47325;-74
2021/07/29 03:08:47;;;;;;;;;3.33;2.67;;;;;;;;5123221;27;45333;-74
2021/07/29 03:11:12;;;;;;;;;4.00;4.00;;;;;;;;5123519;27;45265;-74
2021/07/29 03:13:37;;;;;;;;;6.00;5.00;;;;;;;;5122763;27;45387;-75
2021/07/29 03:16:03;;;;;;;;;7.00;6.00;;;;;;;;5122879;27;46303;-74
2021/07/29 03:18:28;;;;;;;;;4.67;4.67;;;;;;;;5123052;27;45300;-74
2021/07/29 03:20:54;;;;;;;;;4.00;4.00;;;;;;;;5123210;27;45235;-74
2021/07/29 03:23:19;;;;;;;;;4.00;4.00;;;;;;;;5122850;27;45493;-75
2021/07/29 03:25:51;;;;;;;;;4.67;3.67;;;;;;;;5122946;27;45236;-74
2021/07/29 03:28:17;;;;;;;;;3.00;3.00;;;;;;;;5122705;27;45368;-74
2021/07/29 03:30:42;;;;;;;;;7.00;6.00;;;;;;;;5133485;27;45363;-74
2021/07/29 03:33:10;;;;;;;;;6.00;4.00;;;;;;;;5142189;27;45488;-74
2021/07/29 03:35:35;;;;;;;;;5.33;3.67;;;;;;;;5143387;27;46237;-75
2021/07/29 03:38:00;;;;;;;;;4.00;4.00;;;;;;;;5141975;27;45782;-74
2021/07/29 03:40:25;;;;;;;;;4.00;3.00;;;;;;;;5143516;27;45326;-74
2021/07/29 03:42:51;;;;;;;;;5.67;5.67;;;;;;;;5143064;27;45290;-74
2021/07/29 03:45:16;;;;;;;;;4.33;4.00;;;;;;;;5143337;27;45218;-74
2021/07/29 03:47:41;;;;;;;;;6.00;6.00;;;;;;;;5143389;27;45216;-74
2021/07/29 03:50:06;;;;;;;;;4.00;3.67;;;;;;;;5143355;27;45224;-74
2021/07/29 03:52:34;;;;;;;;;6.33;4.67;;;;;;;;5141616;27;46221;-74
2021/07/29 03:54:59;;;;;;;;;4.00;4.00;;;;;;;;5143207;27;46533;-74
2021/07/29 03:57:25;;;;;;;;;5.67;5.67;;;;;;;;5143148;27;45314;-74
2021/07/29 03:59:50;;;;;;;;;5.00;5.00;;;;;;;;5141909;27;45446;-73
2021/07/29 04:02:16;;;;;;;;;6.67;6.33;;;;;;;;5142984;27;45291;-74
2021/07/29 04:04:41;;;;;;;;;6.33;6.33;;;;;;;;5141696;27;47375;-74
2021/07/29 04:07:07;;;;;;;;;6.00;6.00;;;;;;;;5142813;27;45262;-74
2021/07/29 04:09:32;;;;;;;;;5.67;4.00;;;;;;;;5143190;27;45228;-73
2021/07/29 04:11:57;;;;;;;;;5.00;5.00;;;;;;;;5141642;27;47465;-74
2021/07/29 04:14:23;;;;;;;;;3.67;3.67;;;;;;;;5141123;27;48398;-74
2021/07/29 04:16:50;;;;;;;;;7.33;4.67;;;;;;;;5142918;27;45234;-74
2021/07/29 04:19:16;;;;;;;;;3.67;3.67;;;;;;;;5141659;27;45235;-74
2021/07/29 04:21:41;;;;;;;;;3.67;3.67;;;;;;;;5142474;27;45416;-74
2021/07/29 04:24:06;;;;;;;;;5.00;5.00;;;;;;;;5142942;27;45363;-74
2021/07/29 04:26:31;;;;;;;;;6.00;4.67;;;;;;;;5142683;27;45218;-74
2021/07/29 04:28:56;;;;;;;;;5.67;5.33;;;;;;;;5142767;27;45152;-74
2021/07/29 04:31:22;;;;;;;;;6.00;6.00;;;;;;;;5124471;27;45523;-74
2021/07/29 04:33:47;;;;;;;;;5.00;5.00;;;;;;;;5121757;27;46144;-74
2021/07/29 04:36:12;;;;;;;;;6.67;4.00;;;;;;;;5121612;27;45193;-74
2021/07/29 04:38:37;;;;;;;;;4.67;3.33;;;;;;;;5120550;27;45333;-75
2021/07/29 04:41:03;;;;;;;;;4.67;4.33;;;;;;;;5121758;27;45538;-74
2021/07/29 04:43:28;;;;;;;;;5.00;5.00;;;;;;;;5121514;27;45217;-74
2021/07/29 04:45:53;;;;;;;;;4.33;4.33;;;;;;;;5121708;27;45176;-74
2021/07/29 04:48:19;;;;;;;;;3.33;3.33;;;;;;;;5121814;27;45306;-74
2021/07/29 04:50:44;;;;;;;;;2.33;2.33;;;;;;;;5120051;27;46006;-75
2021/07/29 04:53:09;;;;;;;;;4.00;4.00;;;;;;;;5119225;27;47413;-74
2021/07/29 04:55:35;;;;;;;;;4.33;4.33;;;;;;;;5121529;27;45304;-74
2021/07/29 04:58:02;;;;;;;;;4.67;4.00;;;;;;;;5121552;27;45337;-74
2021/07/29 05:00:29;;;;;;;;;6.00;6.00;;;;;;;;5120017;27;46558;-74
2021/07/29 05:02:54;;;;;;;;;5.00;5.00;;;;;;;;5121135;27;47140;-74
2021/07/29 05:05:20;;;;;;;;;7.67;6.00;;;;;;;;5121407;27;45225;-74
2021/07/29 05:07:45;;;;;;;;;7.67;6.00;;;;;;;;5121380;27;45601;-74
2021/07/29 05:10:10;;;;;;;;;6.00;6.00;;;;;;;;5121314;27;45447;-74
2021/07/29 05:12:35;;;;;;;;;7.00;5.00;;;;;;;;5120961;27;46719;-75
2021/07/29 05:15:00;;;;;;;;;6.00;6.00;;;;;;;;5121145;27;45212;-74
2021/07/29 05:17:26;;;;;;;;;4.33;4.33;;;;;;;;5120097;27;45247;-74
2021/07/29 05:19:51;;;;;;;;;5.67;5.67;;;;;;;;5119729;27;46275;-74
2021/07/29 05:22:16;;;;;;;;;6.00;6.00;;;;;;;;5120831;27;46126;-74
2021/07/29 05:24:41;;;;;;;;;6.00;6.00;;;;;;;;5121163;27;45259;-74
2021/07/29 05:27:07;;;;;;;;;4.33;4.33;;;;;;;;5121241;27;45201;-74
2021/07/29 05:29:32;;;;;;;;;6.00;6.00;;;;;;;;5122761;27;45459;-75
2021/07/29 05:31:57;;;;;;;;;6.00;6.00;;;;;;;;5140290;27;47341;-75
2021/07/29 05:34:24;;;;;;;;;6.00;6.00;;;;;;;;5140426;27;45183;-75
2021/07/29 05:36:49;;;;;;;;;5.33;5.00;;;;;;;;5141692;27;45322;-74
2021/07/29 05:39:14;;;;;;;;;6.33;5.00;;;;;;;;5141585;27;45605;-74
2021/07/29 05:41:39;;;;;;;;;6.67;6.67;;;;;;;;5141630;27;45352;-74
2021/07/29 05:44:05;;;;;;;;;6.00;6.00;;;;;;;;5141572;27;45602;-74
2021/07/29 05:46:30;;;;;;;;;7.00;6.00;;;;;;;;5141774;27;45274;-74
2021/07/29 05:48:55;;;;;;;;;7.67;7.33;;;;;;;;5140216;27;47108;-74
2021/07/29 05:51:20;;;;;;;;;6.33;5.67;;;;;;;;5141042;27;46176;-74
2021/07/29 05:53:46;;;;;;;;;6.33;6.33;;;;;;;;5141680;27;45342;-74
2021/07/29 05:56:11;;;;;;;;;6.67;6.67;;;;;;;;5141632;27;45319;-75
2021/07/29 05:58:37;;;;;;;;;6.67;6.00;;;;;;;;5141277;27;45873;-74
2021/07/29 06:01:06;;;;;;;;;6.67;6.67;;;;;;;;5141278;27;46229;-74
2021/07/29 06:03:31;;;;;;;;;6.33;6.33;;;;;;;;5141213;27;45279;-75
2021/07/29 06:05:58;;;;;;;;;7.67;6.67;;;;;;;;5143364;27;45306;-74
2021/07/29 06:08:23;;;;;;;;;6.00;6.00;;;;;;;;5144855;27;45403;-74
2021/07/29 06:10:49;;;;;;;;;8.33;7.00;;;;;;;;5144791;27;45129;-74
2021/07/29 06:13:14;;;;;;;;;5.33;5.33;;;;;;;;5144688;27;45311;-74
2021/07/29 06:15:39;;;;;;;;;4.33;4.33;;;;;;;;5144831;27;45316;-74
2021/07/29 06:18:09;;;;;;;;;5.67;5.67;;;;;;;;5144845;27;45252;-75
2021/07/29 06:20:34;;;;;;;;;7.00;7.00;;;;;;;;5144683;27;45372;-74
2021/07/29 06:22:59;;;;;;;;;9.00;7.33;;;;;;;;5143070;27;46117;-75
2021/07/29 06:25:24;;;;;;;;;6.00;6.00;;;;;;;;5144807;27;45299;-74
2021/07/29 06:27:50;;;;;;;;;8.67;7.33;;;;;;;;5144414;27;45205;-74
2021/07/29 06:30:16;;;;;;;;;6.00;6.00;;;;;;;;5134699;27;48132;-73
2021/07/29 06:32:41;;;;;;;;;5.00;5.00;;;;;;;;5123848;27;45518;-75
2021/07/29 06:35:07;;;;;;;;;5.33;5.00;;;;;;;;5123883;27;45555;-75
2021/07/29 06:37:33;;;;;;;;;7.33;6.33;;;;;;;;5123311;27;45436;-75
2021/07/29 06:39:58;;;;;;;;;6.67;5.00;;;;;;;;5123443;27;45132;-74
2021/07/29 06:42:23;;;;;;;;;5.00;5.00;;;;;;;;5122194;27;46167;-75
2021/07/29 06:44:48;;;;;;;;;5.00;5.00;;;;;;;;5123470;27;45413;-75
2021/07/29 06:47:14;;;;;;;;;6.00;5.67;;;;;;;;5123559;27;45450;-74
2021/07/29 06:49:39;;;;;;;;;6.33;6.33;;;;;;;;5122224;27;47352;-76
2021/07/29 06:52:04;;;;;;;;;5.00;5.00;;;;;;;;5123255;27;45350;-74
2021/07/29 06:54:29;;;;;;;;;5.00;5.00;;;;;;;;5123658;27;45177;-75
2021/07/29 06:56:55;;;;;;;;;5.00;5.00;;;;;;;;5123593;27;45582;-74
2021/07/29 06:59:20;;;;;;;;;7.00;7.00;;;;;;;;5123125;27;45948;-76
2021/07/29 07:01:45;;;;;;;;;5.33;5.33;;;;;;;;5123297;27;45377;-75
2021/07/29 07:04:10;;;;;;;;;5.00;5.00;;;;;;;;5123388;27;45352;-74
2021/07/29 07:06:36;;;;;;;;;7.00;6.00;;;;;;;;5121632;27;46169;-74
2021/07/29 07:09:01;;;;;;;;;6.00;5.00;;;;;;;;5123284;27;45309;-75
2021/07/29 07:11:26;;;;;;;;;5.67;5.67;;;;;;;;5121645;27;45328;-75
2021/07/29 07:13:51;;;;;;;;;7.00;5.67;;;;;;;;5123050;27;45341;-75
2021/07/29 07:16:17;;;;;;;;;7.33;7.00;;;;;;;;5122389;27;45457;-75
2021/07/29 07:18:42;;;;;;;;;6.00;6.00;;;;;;;;5122997;27;45316;-75
2021/07/29 07:21:08;;;;;;;;;8.00;8.00;;;;;;;;5122990;27;45306;-75
2021/07/29 07:23:34;;;;;;;;;6.67;6.67;;;;;;;;5123132;27;45421;-74
2021/07/29 07:25:59;;;;;;;;;7.00;6.67;;;;;;;;5122978;27;45266;-75
2021/07/29 07:28:24;;;;;;;;;6.67;6.00;;;;;;;;5122719;27;45370;-75
2021/07/29 07:30:50;;;;;;;;;4.00;4.00;;;;;;;;5136043;27;45456;-75
2021/07/29 07:33:15;;;;;;;;;7.00;7.00;;;;;;;;5143964;27;45267;-74
2021/07/29 07:35:40;;;;;;;;;5.00;5.00;;;;;;;;5141962;27;47560;-75
2021/07/29 07:38:05;;;;;;;;;6.67;6.00;;;;;;;;5143422;27;45421;-75
2021/07/29 07:40:30;;;;;;;;;6.00;6.00;;;;;;;;5143497;27;45225;-75
2021/07/29 07:42:56;;;;;;;;;7.00;5.00;;;;;;;;5143338;27;45388;-74
2021/07/29 07:45:21;;;;;;;;;6.00;6.00;;;;;;;;5143247;27;45378;-76
2021/07/29 07:47:47;;;;;;;;;5.33;5.33;;;;;;;;5143243;27;45260;-75
2021/07/29 07:50:12;;;;;;;;;4.67;4.00;;;;;;;;5143377;27;45163;-74
2021/07/29 07:52:37;;;;;;;;;9.00;7.33;;;;;;;;5143247;27;45207;-74
2021/07/29 07:55:02;;;;;;;;;5.00;5.00;;;;;;;;5143164;27;45167;-74
2021/07/29 07:57:27;;;;;;;;;5.33;5.00;;;;;;;;5143045;27;45486;-75
2021/07/29 07:59:57;;;;;;;;;8.67;6.33;;;;;;;;5143273;27;45265;-74
2021/07/29 08:02:22;;;;;;;;;7.00;6.33;;;;;;;;5143339;27;45336;-75
2021/07/29 08:04:48;;;;;;;;;7.00;7.00;;;;;;;;5143118;27;45483;-75
2021/07/29 08:07:13;;;;;;;;;4.00;4.00;;;;;;;;5141527;27;47075;-75
2021/07/29 08:09:38;;;;;;;;;7.33;5.00;;;;;;;;5141765;27;45640;-75
2021/07/29 08:12:03;;;;;;;;;6.33;6.33;;;;;;;;5143095;27;45275;-75
2021/07/29 08:14:28;;;;;;;;;3.67;3.67;;;;;;;;5142389;27;45510;-75
2021/07/29 08:16:54;;;;;;;;;5.00;5.00;;;;;;;;5141882;27;47270;-76
2021/07/29 08:19:19;;;;;;;;;7.00;7.00;;;;;;;;5143160;27;45274;-75
2021/07/29 08:21:44;;;;;;;;;6.67;6.67;;;;;;;;5141506;27;45367;-75
2021/07/29 08:24:11;;;;;;;;;4.33;4.33;;;;;;;;5142783;27;45261;-75
2021/07/29 08:26:37;;;;;;;;;5.00;5.00;;;;;;;;5141862;27;47101;-75
2021/07/29 08:29:02;;;;;;;;;5.33;5.33;;;;;;;;5142289;27;45288;-74
2021/07/29 08:31:28;;;;;;;;;6.00;5.00;;;;;;;;5123788;27;45407;-74
2021/07/29 08:33:53;;;;;;;;;6.67;5.00;;;;;;;;5122018;27;45266;-75
2021/07/29 08:36:19;;;;;;;;;5.33;5.33;;;;;;;;5121466;27;46725;-74
2021/07/29 08:38:45;;;;;;;;;4.67;4.67;;;;;;;;5121701;27;45158;-75
2021/07/29 08:41:11;;;;;;;;;6.67;6.00;;;;;;;;5121944;27;45310;-76
2021/07/29 08:43:37;;;;;;;;;7.00;7.00;;;;;;;;5121844;27;45330;-75
2021/07/29 08:46:07;;;;;;;;;3.33;3.33;;;;;;;;5121698;27;45304;-74
2021/07/29 08:48:33;;;;;;;;;5.00;5.00;;;;;;;;5121854;27;45236;-75
2021/07/29 08:50:58;;;;;;;;;7.00;4.33;;;;;;;;5121631;27;45262;-74
2021/07/29 08:53:24;;;;;;;;;2.33;2.33;;;;;;;;5122415;27;45190;-75
2021/07/29 08:55:53;;;;;;;;;5.00;5.00;;;;;;;;5122684;27;45192;-75
2021/07/29 08:58:19;;;;;;;;;5.00;5.00;;;;;;;;5122639;27;45331;-75
2021/07/29 09:01:02;;;;;;;;;5.00;5.00;;;;;;;;5122298;27;45248;-75
2021/07/29 09:03:28;;;;;;;;;5.00;5.00;;;;;;;;5121350;27;45293;-75
2021/07/29 09:06:00;;;;;;;;;6.67;6.00;;;;;;;;5121716;27;45293;-75
2021/07/29 09:08:25;;;;;;;;;4.33;4.33;;;;;;;;5121454;27;45444;-75
2021/07/29 09:10:50;;;;;;;;;3.33;3.33;;;;;;;;5121594;27;45241;-75
2021/07/29 09:13:17;;;;;;;;;4.00;3.33;;;;;;;;5121272;27;45341;-75
2021/07/29 09:15:43;;;;;;;;;5.33;4.33;;;;;;;;5121030;27;46016;-74
2021/07/29 09:18:09;;;;;;;;;3.33;3.33;;;;;;;;5121316;27;45246;-75
2021/07/29 09:20:34;;;;;;;;;3.00;3.00;;;;;;;;5119897;27;45326;-75
2021/07/29 09:23:12;;;;;;;;;3.67;3.67;;;;;;;;5121162;27;45334;-75
2021/07/29 09:25:37;;;;;;;;;5.00;5.00;;;;;;;;5121668;27;46384;-75
2021/07/29 09:28:04;;;;;;;;;4.00;4.00;;;;;;;;5124123;27;45312;-75
2021/07/29 09:30:33;;;;;;;;;5.00;5.00;;;;;;;;5134850;27;45240;-76
2021/07/29 09:33:12;;;;;;;;;4.00;4.00;;;;;;;;5142051;27;46335;-75
2021/07/29 09:35:48;;;;;;;;;2.33;2.00;;;;;;;;5140807;27;47574;-76
2021/07/29 09:38:19;;;;;;;;;5.00;4.00;;;;;;;;5143020;27;45142;-75
2021/07/29 09:40:46;;;;;;;;;4.00;4.00;;;;;;;;5146512;27;45451;-76
2021/07/29 09:43:13;;;;;;;;;4.00;4.00;;;;;;;;5145122;27;45183;-74
2021/07/29 09:45:39;;;;;;;;;2.67;2.67;;;;;;;;5145530;27;46244;-75
2021/07/29 09:48:05;;;;;;;;;5.67;3.33;;;;;;;;5145495;27;45214;-75
2021/07/29 09:50:31;;;;;;;;;4.00;3.00;;;;;;;;5145227;27;45478;-75
2021/07/29 09:52:58;;;;;;;;;2.00;2.00;;;;;;;;5145494;27;45395;-75
2021/07/29 09:55:24;;;;;;;;;2.33;2.33;;;;;;;;5145877;27;45309;-76
2021/07/29 09:57:49;;;;;;;;;2.33;2.33;;;;;;;;5145988;27;45286;-75
2021/07/29 10:00:15;;;;;;;;;3.33;3.00;;;;;;;;5146171;27;45274;-75
2021/07/29 10:02:40;;;;;;;;;7.00;5.00;;;;;;;;5144977;27;45557;-76
2021/07/29 10:05:06;;;;;;;;;4.67;3.00;;;;;;;;5148282;27;45231;-76
2021/07/29 10:07:34;;;;;;;;;3.33;3.33;;;;;;;;5148320;27;46106;-75
2021/07/29 10:10:01;;;;;;;;;4.00;3.67;;;;;;;;5146780;27;45204;-75
2021/07/29 10:12:29;;;;;;;;;3.00;3.00;;;;;;;;5147290;27;45327;-76
2021/07/29 10:14:55;;;;;;;;;4.00;4.00;;;;;;;;5144716;27;47839;-75
2021/07/29 10:17:45;;;;;;;;;2.00;2.00;;;;;;;;5146136;27;45237;-76
2021/07/29 10:20:15;;;;;;;;;4.00;3.67;;;;;;;;5139525;27;45250;-75
2021/07/29 10:22:41;;;;;;;;;2.33;2.33;;;;;;;;5144471;27;45213;-74
2021/07/29 10:25:06;;;;;;;;;2.00;2.00;;;;;;;;5144151;27;46918;-75
2021/07/29 10:27:32;;;;;;;;;3.00;3.00;;;;;;;;5145457;27;45180;-75
2021/07/29 10:30:16;;;;;;;;;2.67;2.67;;;;;;;;5140403;27;45239;-75
2021/07/29 10:32:47;;;;;;;;;3.00;3.00;;;;;;;;5122790;27;46476;-75
2021/07/29 10:35:31;;;;;;;;;2.00;2.00;;;;;;;;5124094;27;46236;-75
2021/07/29 10:37:57;;;;;;;;;3.00;3.00;;;;;;;;5124155;27;45246;-76
2021/07/29 10:40:32;;;;;;;;;4.00;4.00;;;;;;;;5124880;27;45300;-75
2021/07/29 10:43:17;;;;;;;;;2.00;2.00;;;;;;;;5123630;27;45456;-75
2021/07/29 10:45:50;;;;;;;;;4.00;4.00;;;;;;;;5125300;27;46480;-75
2021/07/29 10:48:38;;;;;;;;;2.00;2.00;;;;;;;;5124341;27;45137;-75
2021/07/29 10:51:13;;;;;;;;;3.67;3.00;;;;;;;;5116989;27;45322;-75
2021/07/29 10:53:42;;;;;;;;;2.67;2.67;;;;;;;;5125807;27;45141;-75
2021/07/29 10:56:08;;;;;;;;;4.33;4.33;;;;;;;;5126179;27;45219;-75
2021/07/29 10:58:41;;;;;;;;;3.00;3.00;;;;;;;;5124399;27;45199;-76
2021/07/29 11:01:06;;;;;;;;;3.00;3.00;;;;;;;;5123922;27;45191;-75
2021/07/29 11:03:31;;;;;;;;;3.33;3.33;;;;;;;;5123880;27;45262;-76
2021/07/29 11:06:05;;;;;;;;;3.00;3.00;;;;;;;;5123737;27;45219;-75
2021/07/29 11:08:30;;;;;;;;;7.00;6.00;;;;;;;;5124687;27;45260;-75
2021/07/29 11:10:59;;;;;;;;;2.33;2.33;;;;;;;;5123570;27;45292;-76
2021/07/29 11:13:26;;;;;;;;;3.67;3.33;;;;;;;;5123730;27;45313;-75
2021/07/29 11:15:51;;;;;;;;;0.33;0.33;;;;;;;;5124355;27;45367;-76
2021/07/29 11:18:18;;;;;;;;;3.33;3.00;;;;;;;;5123573;27;45329;-75
2021/07/29 11:20:44;;;;;;;;;2.67;2.67;;;;;;;;5125260;27;45259;-76
2021/07/29 11:23:13;;;;;;;;;3.00;3.00;;;;;;;;5123124;27;45805;-75
2021/07/29 11:25:54;;;;;;;;;5.67;5.00;;;;;;;;5121924;27;47547;-75
2021/07/29 11:28:19;;;;;;;;;4.00;4.00;;;;;;;;5124519;27;45715;-75
2021/07/29 11:30:45;;;;;;;;;3.67;3.00;;;;;;;;5136104;27;45296;-75
2021/07/29 11:33:24;;;;;;;;;3.00;3.00;;;;;;;;5146221;27;45240;-76
2021/07/29 11:35:49;;;;;;;;;3.00;3.00;;;;;;;;5143666;27;46496;-76
2021/07/29 11:38:16;;;;;;;;;2.33;2.00;;;;;;;;5142962;27;45307;-77
2021/07/29 11:40:41;;;;;;;;;3.67;2.67;;;;;;;;5145954;27;45298;-76
2021/07/29 11:43:19;;;;;;;;;2.00;2.00;;;;;;;;5144375;27;46583;-75
2021/07/29 11:45:44;;;;;;;;;4.33;4.00;;;;;;;;5143383;27;48485;-74
2021/07/29 11:48:18;;;;;;;;;2.33;2.33;;;;;;;;5145268;27;45426;-76
2021/07/29 11:50:43;;;;;;;;;3.00;3.00;;;;;;;;5144570;27;45265;-75
2021/07/29 11:53:09;;;;;;;;;3.00;3.00;;;;;;;;5145449;27;45413;-75
2021/07/29 11:55:38;;;;;;;;;3.67;3.67;;;;;;;;5145460;27;46159;-76
2021/07/29 11:58:07;;;;;;;;;4.33;4.33;;;;;;;;5145067;27;45285;-75
2021/07/29 12:00:32;;;;;;;;;3.00;3.00;;;;;;;;5146377;27;45343;-75
2021/07/29 12:02:58;;;;;;;;;2.00;2.00;;;;;;;;5143200;27;45492;-75
2021/07/29 12:05:24;;;;;;;;;2.33;2.33;;;;;;;;5143951;27;45507;-76
2021/07/29 12:07:50;;;;;;;;;3.67;3.67;;;;;;;;5143550;27;46425;-75
2021/07/29 12:10:16;;;;;;;;;6.67;6.00;;;;;;;;5144497;27;45442;-76
2021/07/29 12:12:41;;;;;;;;;3.33;3.33;;;;;;;;5147479;27;45236;-76
2021/07/29 12:15:07;;;;;;;;;2.33;2.33;;;;;;;;5146788;27;45239;-76
2021/07/29 12:17:32;;;;;;;;;3.67;3.33;;;;;;;;5143738;27;45243;-75
2021/07/29 12:19:58;;;;;;;;;2.00;2.00;;;;;;;;5144914;27;45531;-76
2021/07/29 12:22:25;;;;;;;;;1.00;1.00;;;;;;;;5142853;27;45321;-75
2021/07/29 12:24:50;;;;;;;;;3.00;3.00;;;;;;;;5144028;27;46080;-76
2021/07/29 12:27:18;;;;;;;;;1.33;1.33;;;;;;;;5142826;27;45358;-75
2021/07/29 12:29:44;;;;;;;;;2.00;2.00;;;;;;;;5144223;27;45381;-75
2021/07/29 12:32:19;;;;;;;;;3.00;3.00;;;;;;;;5122514;27;47529;-75
2021/07/29 12:34:45;;;;;;;;;3.00;2.00;;;;;;;;5126638;27;45388;-75
2021/07/29 12:37:10;;;;;;;;;4.67;4.00;;;;;;;;5121577;27;45291;-76
2021/07/29 12:39:35;;;;;;;;;4.00;4.00;;;;;;;;5123820;27;45514;-75
2021/07/29 12:42:20;;;;;;;;;2.33;2.33;;;;;;;;5124208;27;45210;-76
2021/07/29 12:44:55;;;;;;;;;3.00;3.00;;;;;;;;5127412;27;46394;-76
2021/07/29 12:47:20;;;;;;;;;2.00;2.00;;;;;;;;5127366;27;45179;-75
2021/07/29 12:49:46;;;;;;;;;2.67;2.67;;;;;;;;5126257;27;45256;-75
2021/07/29 12:52:23;;;;;;;;;5.33;5.33;;;;;;;;5124291;27;45293;-77
2021/07/29 12:55:07;;;;;;;;;4.00;2.67;;;;;;;;5123047;27;45338;-76
2021/07/29 12:57:52;;;;;;;;;4.00;3.33;;;;;;;;5122112;27;45217;-74
2021/07/29 13:00:17;;;;;;;;;4.00;4.00;;;;;;;;5124745;27;45264;-75
2021/07/29 13:02:42;;;;;;;;;2.67;2.67;;;;;;;;5123341;27;45376;-76
2021/07/29 13:05:08;;;;;;;;;2.00;2.00;;;;;;;;5124945;27;45256;-76
2021/07/29 13:07:33;;;;;;;;;2.33;2.33;;;;;;;;5124121;27;45217;-75
2021/07/29 13:09:58;;;;;;;;;1.33;1.33;;;;;;;;5122312;27;45259;-76
2021/07/29 13:12:23;;;;;;;;;3.00;2.67;;;;;;;;5121738;27;45136;-76
2021/07/29 13:14:48;;;;;;;;;4.33;3.00;;;;;;;;5122537;27;45144;-75
2021/07/29 13:17:14;;;;;;;;;1.00;1.00;;;;;;;;5121783;27;45218;-76
2021/07/29 13:19:39;;;;;;;;;3.00;3.00;;;;;;;;5121297;27;45363;-76
2021/07/29 13:22:04;;;;;;;;;4.00;3.00;;;;;;;;5122501;27;45457;-75
2021/07/29 13:24:29;;;;;;;;;2.33;2.00;;;;;;;;5122223;27;46069;-77
2021/07/29 13:26:55;;;;;;;;;2.00;2.00;;;;;;;;5121671;27;45292;-75
2021/07/29 13:29:20;;;;;;;;;2.33;2.33;;;;;;;;5122080;27;45218;-75
2021/07/29 13:31:45;;;;;;;;;2.00;2.00;;;;;;;;5142409;27;45422;-76
2021/07/29 13:34:10;;;;;;;;;1.00;1.00;;;;;;;;5143873;27;45386;-76
2021/07/29 13:36:35;;;;;;;;;3.00;3.00;;;;;;;;5142713;27;45295;-75
2021/07/29 13:39:01;;;;;;;;;1.00;1.00;;;;;;;;5143341;27;45396;-76
2021/07/29 13:41:26;;;;;;;;;2.33;2.33;;;;;;;;5143683;27;46013;-76
2021/07/29 13:43:52;;;;;;;;;1.67;1.67;;;;;;;;5142022;27;45368;-76
2021/07/29 13:46:17;;;;;;;;;2.00;2.00;;;;;;;;5143982;27;45255;-74
2021/07/29 13:48:42;;;;;;;;;5.00;3.33;;;;;;;;5143299;27;45314;-75
2021/07/29 13:51:09;;;;;;;;;2.00;2.00;;;;;;;;5141975;27;45945;-75
2021/07/29 13:53:34;;;;;;;;;1.67;1.67;;;;;;;;5141465;27;47290;-77
2021/07/29 13:56:00;;;;;;;;;3.25;2.75;;;;;;;;5142139;27;45281;-75
2021/07/29 13:58:25;;;;;;;;;2.33;2.33;;;;;;;;5142010;27;45264;-76
2021/07/29 14:00:50;;;;;;;;;4.00;3.00;;;;;;;;5141541;27;45487;-76
2021/07/29 14:03:15;;;;;;;;;4.33;4.33;;;;;;;;5141458;27;46043;-76
2021/07/29 14:05:43;;;;;;;;;2.00;2.00;;;;;;;;5143008;27;45253;-75
2021/07/29 14:08:09;;;;;;;;;2.67;2.67;;;;;;;;5142251;27;45224;-75
2021/07/29 14:10:34;;;;;;;;;3.00;3.00;;;;;;;;5142662;27;45208;-75
2021/07/29 14:12:59;;;;;;;;;3.67;3.00;;;;;;;;5141146;27;45146;-77
2021/07/29 14:15:25;;;;;;;;;2.00;2.00;;;;;;;;5142133;27;45296;-76
2021/07/29 14:18:00;;;;;;;;;3.00;3.00;;;;;;;;5142168;27;45336;-76
2021/07/29 14:23:23;;;;;;;;;3.00;3.00;;;;;;;;5133336;27;45439;-75
2021/07/29 14:25:48;;;;;;;;;2.00;2.00;;;;;;;;5145262;27;45324;-75
2021/07/29 14:28:13;;;;;;;;;4.00;4.00;;;;;;;;5144088;27;45465;-76
2021/07/29 14:30:40;;;;;;;;;5.00;2.67;;;;;;;;5132750;27;45553;-76
2021/07/29 14:33:06;;;;;;;;;3.33;3.33;;;;;;;;5123921;27;46074;-75
2021/07/29 14:35:31;;;;;;;;;2.67;2.67;;;;;;;;5122724;27;45252;-76
2021/07/29 14:37:57;;;;;;;;;4.00;2.00;;;;;;;;5125103;27;45526;-76
2021/07/29 14:40:22;;;;;;;;;2.67;2.67;;;;;;;;5123981;27;45243;-75
2021/07/29 14:42:48;;;;;;;;;2.67;2.67;;;;;;;;5122226;27;47240;-75